createdAt,value
2022-09-13T00:02:43.901Z,4.73
2022-09-13T00:07:46.960Z,4.83
2022-09-13T00:12:50.205Z,5.23
2022-09-13T00:17:54.689Z,4.80
2022-09-13T00:22:57.797Z,4.20
2022-09-13T00:28:00.908Z,5.00
2022-09-13T00:33:05.484Z,4.90
2022-09-13T00:38:08.593Z,4.00
2022-09-13T00:43:18.906Z,4.17
2022-09-13T00:48:25.657Z,4.87
2022-09-13T00:53:34.425Z,5.37
2022-09-13T00:58:41.816Z,4.70
2022-09-13T01:03:48.594Z,4.17
2022-09-13T01:08:54.592Z,4.00
2022-09-13T01:13:58.718Z,4.30
2022-09-13T01:19:03.198Z,3.90
2022-09-13T01:24:49.825Z,3.40
2022-09-13T01:30:21.924Z,3.50
2022-09-13T01:35:31.545Z,3.80
2022-09-13T01:40:50.649Z,4.17
2022-09-13T01:46:05.079Z,3.83
2022-09-13T01:51:13.313Z,4.03
2022-09-13T01:56:22.744Z,3.70
2022-09-13T02:01:32.491Z,4.10
2022-09-13T02:06:41.625Z,5.57
2022-09-13T02:11:48.363Z,4.70
2022-09-13T02:16:57.827Z,4.17
2022-09-13T02:22:03.181Z,3.77
2022-09-13T02:27:10.132Z,4.70
2022-09-13T02:32:18.450Z,4.83
2022-09-13T02:37:22.833Z,4.80
2022-09-13T02:42:31.817Z,3.80
2022-09-13T02:47:48.895Z,3.73
2022-09-13T02:53:02.637Z,4.00
2022-09-13T02:58:11.792Z,3.47
2022-09-13T03:03:17.619Z,3.13
2022-09-13T03:08:21.708Z,3.33
2022-09-13T03:13:54.522Z,3.10
2022-09-13T03:19:13.124Z,3.07
2022-09-13T03:24:22.957Z,2.50
2022-09-13T03:29:32.360Z,3.13
2022-09-13T03:34:44.557Z,2.73
2022-09-13T03:39:54.035Z,3.80
2022-09-13T03:44:59.480Z,3.27
2022-09-13T03:50:04.814Z,4.20
2022-09-13T03:55:08.447Z,4.40
2022-09-13T04:00:15.004Z,4.27
2022-09-13T04:05:19.521Z,3.87
2022-09-13T04:10:24.268Z,3.17
2022-09-13T04:15:27.372Z,3.03
2022-09-13T04:20:32.002Z,3.83
2022-09-13T04:25:35.138Z,3.90
2022-09-13T04:30:42.499Z,3.60
2022-09-13T04:35:47.217Z,3.43
2022-09-13T04:40:55.070Z,4.00
2022-09-13T04:46:01.990Z,4.20
2022-09-13T04:51:06.757Z,3.90
2022-09-13T04:56:10.514Z,4.07
2022-09-13T05:01:13.885Z,4.60
2022-09-13T05:06:19.573Z,5.00
2022-09-13T05:11:23.935Z,5.43
2022-09-13T05:16:28.609Z,5.60
2022-09-13T05:21:33.246Z,5.33
2022-09-13T05:26:36.451Z,5.57
2022-09-13T05:31:41.804Z,5.60
2022-09-13T05:36:48.432Z,5.30
2022-09-13T05:41:54.973Z,4.10
2022-09-13T05:46:58.300Z,4.67
2022-09-13T05:52:03.075Z,5.87
2022-09-13T05:57:06.254Z,5.63
2022-09-13T06:02:11.005Z,5.50
2022-09-13T06:07:15.856Z,6.00
2022-09-13T06:12:18.986Z,9.87
2022-09-13T06:17:22.117Z,8.57
2022-09-13T06:22:33.062Z,5.97
2022-09-13T06:27:36.201Z,6.57
2022-09-13T06:32:39.340Z,6.03
2022-09-13T06:37:43.937Z,6.93
2022-09-13T06:42:46.977Z,6.70
2022-09-13T06:47:50.074Z,5.20
2022-09-13T06:52:54.525Z,5.47
2022-09-13T06:57:57.611Z,4.97
2022-09-13T07:03:00.708Z,6.10
2022-09-13T07:08:05.246Z,5.77
2022-09-13T07:13:08.318Z,5.63
2022-09-13T07:18:11.404Z,5.17
2022-09-13T07:23:15.854Z,4.97
2022-09-13T07:28:22.232Z,6.27
2022-09-13T07:33:25.561Z,4.63
2022-09-13T07:38:30.261Z,5.13
2022-09-13T07:43:34.007Z,4.27
2022-09-13T07:48:39.249Z,4.63
2022-09-13T07:53:45.455Z,4.33
2022-09-13T07:58:50.063Z,4.60
2022-09-13T08:03:54.525Z,4.30
2022-09-13T08:08:59.449Z,4.00
2022-09-13T08:14:03.281Z,4.63
2022-09-13T08:19:07.803Z,3.63
2022-09-13T08:24:15.941Z,8.43
2022-09-13T08:29:19.438Z,4.30
2022-09-13T08:34:22.533Z,4.10
2022-09-13T08:39:29.281Z,4.20
2022-09-13T08:44:37.496Z,4.03
2022-09-13T08:49:45.475Z,3.53
2022-09-13T08:54:54.918Z,3.70
2022-09-13T09:00:08.012Z,3.27
2022-09-13T09:05:17.837Z,2.93
2022-09-13T09:10:25.638Z,3.13
2022-09-13T09:15:36.078Z,2.80
2022-09-13T09:20:42.612Z,2.93
2022-09-13T09:25:47.463Z,3.20
2022-09-13T09:30:58.776Z,2.33
2022-09-13T09:36:08.020Z,2.87
2022-09-13T09:41:27.497Z,2.70
2022-09-13T09:46:33.949Z,2.60
2022-09-13T09:51:37.190Z,2.93
2022-09-13T09:56:54.222Z,2.80
2022-09-13T10:01:58.171Z,2.37
2022-09-13T10:07:20.454Z,2.60
2022-09-13T10:12:30.164Z,2.17
2022-09-13T10:17:33.482Z,2.37
2022-09-13T10:22:36.584Z,2.20
2022-09-13T10:27:43.842Z,2.40
2022-09-13T10:32:57.321Z,2.10
2022-09-13T10:38:00.529Z,1.93
2022-09-13T10:43:08.423Z,2.23
2022-09-13T10:54:33.376Z,1.93
2022-09-13T10:59:37.822Z,2.00
2022-09-13T11:05:07.229Z,1.60
2022-09-13T11:10:19.616Z,1.60
2022-09-13T11:15:36.408Z,1.80
2022-09-13T11:20:48.274Z,1.93
2022-09-13T11:26:07.225Z,2.80
2022-09-13T11:31:26.490Z,1.80
2022-09-13T11:36:47.233Z,2.30
2022-09-13T11:42:00.586Z,1.50
2022-09-13T11:47:12.696Z,1.80
2022-09-13T11:52:27.008Z,2.47
2022-09-13T11:57:35.435Z,1.77
2022-09-13T12:02:44.855Z,1.60
2022-09-13T12:07:52.336Z,2.20
2022-09-13T12:12:56.702Z,2.33
2022-09-13T12:18:05.648Z,1.90
2022-09-13T12:23:15.790Z,2.30
2022-09-13T12:28:24.807Z,2.03
2022-09-13T12:33:29.625Z,2.00
2022-09-13T12:39:00.630Z,1.87
2022-09-13T12:44:42.510Z,1.80
2022-09-13T12:50:21.555Z,1.70
2022-09-13T12:55:47.452Z,1.50
2022-09-13T13:01:10.947Z,1.50
2022-09-13T13:06:33.395Z,1.67
2022-09-13T13:11:47.374Z,1.77
2022-09-13T13:16:50.451Z,1.50
2022-09-13T13:21:55.037Z,1.90
2022-09-13T13:26:59.623Z,1.80
2022-09-13T13:32:13.559Z,1.80
2022-09-13T13:37:39.025Z,1.60
2022-09-13T13:42:45.224Z,2.50
2022-09-13T13:48:09.952Z,2.43
2022-09-13T13:53:23.753Z,2.77
2022-09-13T13:58:32.875Z,1.83
2022-09-13T14:04:07.269Z,1.70
2022-09-13T14:09:33.101Z,1.90
2022-09-13T14:14:54.190Z,1.60
2022-09-13T14:20:01.736Z,1.90
2022-09-13T14:25:24.279Z,1.80
2022-09-13T14:30:32.744Z,1.90
2022-09-13T14:35:38.101Z,2.63
2022-09-13T14:40:42.617Z,2.70
2022-09-13T14:45:50.081Z,2.00
2022-09-13T14:50:58.398Z,1.97
2022-09-13T14:56:07.560Z,2.10
2022-09-13T15:01:13.265Z,2.00
2022-09-13T15:06:27.597Z,2.00
2022-09-13T15:11:36.974Z,2.40
2022-09-13T15:16:49.304Z,2.17
2022-09-13T15:21:52.601Z,2.40
2022-09-13T15:27:05.693Z,2.40
2022-09-13T15:32:22.656Z,2.40
2022-09-13T15:37:35.281Z,2.63
2022-09-13T15:42:39.797Z,2.40
2022-09-13T15:47:45.819Z,2.33
2022-09-13T15:52:49.013Z,2.50
2022-09-13T15:57:53.762Z,2.43
2022-09-13T16:02:57.049Z,2.80
2022-09-13T16:08:00.389Z,2.80
2022-09-13T16:13:04.850Z,3.60
2022-09-13T16:18:07.902Z,3.63
2022-09-13T16:23:11.205Z,2.90
2022-09-13T16:28:18.533Z,3.10
2022-09-13T16:33:21.820Z,3.27
2022-09-13T16:38:25.004Z,2.90
2022-09-13T16:43:29.512Z,4.87
2022-09-13T16:48:32.618Z,2.90
2022-09-13T16:53:36.879Z,3.20
2022-09-13T16:58:43.367Z,4.77
2022-09-13T17:03:46.677Z,3.53
2022-09-13T17:08:52.008Z,3.30
2022-09-13T17:13:56.727Z,4.13
2022-09-13T17:19:01.542Z,4.97
2022-09-13T17:24:08.007Z,3.73
2022-09-13T17:29:15.574Z,3.47
2022-09-13T17:34:19.345Z,4.67
2022-09-13T17:39:22.583Z,3.67
2022-09-13T17:44:27.341Z,4.20
2022-09-13T17:49:30.541Z,3.90
2022-09-13T17:54:33.860Z,4.50
2022-09-13T17:59:38.599Z,4.00
2022-09-13T18:04:41.688Z,3.80
2022-09-13T18:09:44.840Z,4.10
2022-09-13T18:14:49.368Z,4.00
2022-09-13T18:19:52.434Z,4.20
2022-09-13T18:24:55.552Z,3.37
2022-09-13T18:30:00.056Z,3.93
2022-09-13T18:35:03.382Z,3.63
2022-09-13T18:40:13.988Z,4.33
2022-09-13T18:45:18.793Z,3.53
2022-09-13T18:50:21.893Z,5.30
2022-09-13T18:55:25.032Z,4.20
2022-09-13T19:00:29.993Z,5.03
2022-09-13T19:05:35.193Z,5.00
2022-09-13T19:10:39.054Z,5.00
2022-09-13T19:15:43.542Z,4.53
2022-09-13T19:20:46.714Z,7.20
2022-09-13T19:25:49.925Z,5.00
2022-09-13T19:30:54.447Z,5.60
2022-09-13T19:35:57.544Z,4.10
2022-09-13T19:41:02.603Z,5.17
2022-09-13T19:46:08.723Z,4.40
2022-09-13T19:51:15.042Z,6.07
2022-09-13T19:56:19.234Z,4.77
2022-09-13T20:01:25.718Z,4.53
2022-09-13T20:06:30.343Z,5.10
2022-09-13T20:11:37.583Z,3.90
2022-09-13T20:16:44.904Z,5.07
2022-09-13T20:21:49.609Z,4.40
2022-09-13T20:26:52.834Z,3.77
2022-09-13T20:31:59.599Z,5.00
2022-09-13T20:37:03.101Z,4.60
2022-09-13T20:42:06.629Z,4.70
2022-09-13T20:47:11.829Z,4.30
2022-09-13T20:52:14.993Z,4.37
2022-09-13T20:57:18.077Z,4.37
2022-09-13T21:02:22.860Z,5.13
2022-09-13T21:07:43.380Z,5.00
2022-09-13T21:12:50.330Z,4.63
2022-09-13T21:17:54.937Z,5.73
2022-09-13T21:22:58.063Z,5.17
2022-09-13T21:28:01.239Z,4.60
2022-09-13T21:33:05.926Z,4.80
2022-09-13T21:38:09.046Z,5.10
2022-09-13T21:43:12.160Z,5.17
2022-09-13T21:48:16.630Z,4.97
2022-09-13T21:53:20.048Z,5.80
2022-09-13T21:58:23.234Z,5.50
2022-09-13T22:03:27.676Z,4.60
2022-09-13T22:08:32.530Z,5.10
2022-09-13T22:13:36.609Z,4.83
2022-09-13T22:18:41.773Z,4.97
2022-09-13T22:23:45.004Z,4.93
2022-09-13T22:28:48.537Z,6.00
2022-09-13T22:33:55.084Z,5.63
2022-09-13T22:38:58.745Z,5.80
2022-09-13T22:44:03.316Z,5.07
2022-09-13T22:49:09.112Z,6.57
2022-09-13T22:54:12.466Z,5.30
2022-09-13T22:59:17.698Z,4.77
2022-09-13T23:04:22.438Z,4.53
2022-09-13T23:09:25.665Z,5.37
2022-09-13T23:14:28.774Z,5.20
2022-09-13T23:19:34.377Z,4.90
2022-09-13T23:24:37.540Z,5.07
2022-09-13T23:29:40.856Z,5.87
2022-09-13T23:34:45.307Z,6.30
2022-09-13T23:39:48.450Z,5.13
2022-09-13T23:44:51.601Z,5.00
2022-09-13T23:49:56.144Z,6.17
2022-09-13T23:55:00.287Z,5.23
